createdAt,value
2018-09-11T00:00:20.394Z,94.30
2018-09-11T00:02:48.884Z,94.20
2018-09-11T00:05:17.338Z,94.20
2018-09-11T00:07:45.808Z,94.20
2018-09-11T00:10:14.443Z,94.40
2018-09-11T00:12:42.883Z,94.40
2018-09-11T00:15:11.366Z,94.50
2018-09-11T00:17:39.822Z,94.70
2018-09-11T00:20:08.293Z,94.80
2018-09-11T00:22:36.751Z,95.10
2018-09-11T00:25:06.126Z,95.30
2018-09-11T00:27:34.567Z,95.40
2018-09-11T00:30:03.063Z,95.50
2018-09-11T00:32:31.595Z,95.60
2018-09-11T00:35:00.044Z,95.60
2018-09-11T00:37:28.495Z,95.60
2018-09-11T00:39:57.064Z,95.70
2018-09-11T00:42:25.614Z,95.80
2018-09-11T00:44:54.139Z,96.20
2018-09-11T00:47:22.651Z,96.40
2018-09-11T00:49:51.103Z,96.60
2018-09-11T00:52:19.568Z,97.00
2018-09-11T00:54:48.058Z,97.20
2018-09-11T00:57:16.518Z,97.40
2018-09-11T00:59:44.986Z,97.70
2018-09-11T01:02:13.532Z,97.90
2018-09-11T01:04:42.014Z,98.10
2018-09-11T01:07:10.484Z,98.40
2018-09-11T01:09:39.002Z,98.50
2018-09-11T01:12:07.538Z,98.60
2018-09-11T01:14:35.997Z,98.50
2018-09-11T01:17:04.506Z,98.50
2018-09-11T01:19:32.998Z,98.50
2018-09-11T01:22:01.458Z,98.50
2018-09-11T01:24:30.090Z,98.40
2018-09-11T01:26:58.557Z,98.40
2018-09-11T01:29:27.030Z,98.30
2018-09-11T01:31:55.522Z,98.20
2018-09-11T01:34:23.983Z,98.10
2018-09-11T01:36:52.474Z,98.00
2018-09-11T01:39:20.986Z,98.00
2018-09-11T01:41:49.442Z,97.90
2018-09-11T01:44:17.913Z,97.90
2018-09-11T01:46:46.434Z,98.00
2018-09-11T01:49:14.924Z,98.10
2018-09-11T01:51:43.382Z,98.40
2018-09-11T01:54:11.926Z,98.50
2018-09-11T01:56:40.403Z,98.70
2018-09-11T01:59:08.877Z,98.80
2018-09-11T02:01:37.383Z,98.90
2018-09-11T02:04:05.857Z,99.10
2018-09-11T02:06:34.310Z,99.30
2018-09-11T02:09:02.894Z,99.40
2018-09-11T02:11:31.346Z,99.40
2018-09-11T02:13:59.807Z,99.30
2018-09-11T02:16:28.354Z,99.30
2018-09-11T02:18:56.822Z,99.40
2018-09-11T02:21:26.953Z,99.30
2018-09-11T02:23:56.092Z,99.50
2018-09-11T02:26:24.559Z,99.60
2018-09-11T02:28:53.027Z,99.60
2018-09-11T02:31:21.550Z,99.70
2018-09-11T02:33:50.039Z,99.70
2018-09-11T02:36:18.498Z,99.70
2018-09-11T02:38:48.410Z,99.70
2018-09-11T02:41:16.896Z,99.80
2018-09-11T02:43:45.384Z,99.90
2018-09-11T02:46:13.951Z,99.90
2018-09-11T02:48:42.415Z,99.90
2018-09-11T02:51:10.917Z,99.90
2018-09-11T02:53:39.694Z,99.90
2018-09-11T02:56:08.165Z,99.90
2018-09-11T02:58:36.634Z,99.90
2018-09-11T03:01:05.258Z,99.90
2018-09-11T03:03:33.722Z,99.90
2018-09-11T03:06:02.243Z,99.90
2018-09-11T03:08:30.762Z,99.90
2018-09-11T03:10:59.246Z,99.90
2018-09-11T03:13:27.722Z,99.90
2018-09-11T03:15:56.278Z,99.90
2018-09-11T03:18:24.798Z,99.90
2018-09-11T03:20:53.258Z,99.90
2018-09-11T03:23:21.766Z,99.90
2018-09-11T03:25:50.234Z,99.90
2018-09-11T03:28:18.695Z,99.90
2018-09-11T03:30:48.442Z,99.90
2018-09-11T03:33:16.919Z,99.90
2018-09-11T03:35:45.383Z,99.90
2018-09-11T03:38:13.942Z,99.90
2018-09-11T03:40:42.558Z,99.90
2018-09-11T03:43:11.073Z,99.90
2018-09-11T03:45:43.810Z,99.90
2018-09-11T03:48:12.303Z,99.90
2018-09-11T03:50:40.796Z,99.90
2018-09-11T03:53:09.306Z,99.90
2018-09-11T03:55:37.774Z,99.90
2018-09-11T03:58:07.014Z,99.90
2018-09-11T04:00:35.549Z,99.90
2018-09-11T04:03:04.026Z,99.90
2018-09-11T04:05:32.587Z,99.90
2018-09-11T04:08:01.018Z,99.90
2018-09-11T04:10:29.532Z,99.90
2018-09-11T04:12:58.114Z,99.90
2018-09-11T04:15:26.639Z,99.90
2018-09-11T04:17:55.112Z,99.90
2018-09-11T04:20:23.579Z,99.90
2018-09-11T04:22:52.120Z,99.90
2018-09-11T04:25:20.577Z,99.90
2018-09-11T04:27:49.038Z,99.90
2018-09-11T04:30:17.542Z,99.80
2018-09-11T04:32:46.018Z,99.60
2018-09-11T04:35:14.472Z,99.20
2018-09-11T04:37:43.002Z,99.00
2018-09-11T04:40:11.514Z,99.00
2018-09-11T04:42:40.012Z,99.10
2018-09-11T04:45:08.537Z,99.40
2018-09-11T04:47:37.032Z,99.60
2018-09-11T04:50:05.608Z,99.90
2018-09-11T04:52:34.117Z,99.90
2018-09-11T04:55:02.571Z,99.90
2018-09-11T04:57:31.019Z,99.90
2018-09-11T04:59:59.558Z,99.90
2018-09-11T05:02:28.022Z,99.90
2018-09-11T05:04:56.467Z,99.90
2018-09-11T05:07:24.958Z,99.90
2018-09-11T05:09:53.402Z,99.90
2018-09-11T05:12:21.854Z,99.90
2018-09-11T05:14:50.339Z,99.90
2018-09-11T05:17:18.782Z,99.90
2018-09-11T05:19:47.282Z,99.90
2018-09-11T05:22:15.816Z,99.90
2018-09-11T05:24:44.295Z,99.90
2018-09-11T05:27:12.838Z,99.90
2018-09-11T05:29:41.326Z,99.90
2018-09-11T05:32:09.814Z,99.90
2018-09-11T05:34:38.298Z,99.90
2018-09-11T05:37:06.839Z,99.90
2018-09-11T05:39:35.314Z,99.90
2018-09-11T05:42:03.803Z,99.90
2018-09-11T05:44:32.290Z,99.90
2018-09-11T05:47:00.767Z,99.90
2018-09-11T05:49:29.279Z,99.90
2018-09-11T05:51:57.784Z,99.90
2018-09-11T05:54:26.298Z,99.90
2018-09-11T05:56:54.902Z,99.90
2018-09-11T05:59:23.448Z,99.90
2018-09-11T06:01:52.032Z,99.90
2018-09-11T06:04:20.506Z,99.90
2018-09-11T06:06:48.999Z,99.90
2018-09-11T06:09:17.462Z,99.90
2018-09-11T06:11:45.970Z,99.90
2018-09-11T06:14:14.471Z,99.90
2018-09-11T06:16:43.018Z,99.90
2018-09-11T06:19:11.501Z,99.90
2018-09-11T06:21:40.751Z,99.90
2018-09-11T06:24:09.203Z,99.90
2018-09-11T06:26:37.662Z,99.90
2018-09-11T06:29:06.337Z,99.90
2018-09-11T06:31:34.762Z,99.90
2018-09-11T06:34:03.343Z,99.90
2018-09-11T06:36:31.910Z,99.90
2018-09-11T06:39:00.386Z,99.90
2018-09-11T06:41:28.875Z,99.90
2018-09-11T06:43:57.410Z,99.90
2018-09-11T06:46:25.876Z,99.90
2018-09-11T06:48:54.326Z,99.90
2018-09-11T06:51:22.821Z,99.90
2018-09-11T06:53:51.261Z,99.90
2018-09-11T06:56:19.739Z,99.90
2018-09-11T06:58:48.238Z,99.90
2018-09-11T07:01:16.672Z,99.90
2018-09-11T07:03:45.124Z,99.90
2018-09-11T07:06:13.675Z,99.90
2018-09-11T07:08:42.112Z,99.90
2018-09-11T07:11:10.566Z,99.90
2018-09-11T07:13:39.075Z,99.90
2018-09-11T07:16:07.520Z,99.90
2018-09-11T07:18:35.996Z,99.90
2018-09-11T07:21:04.550Z,99.90
2018-09-11T07:23:33.050Z,99.90
2018-09-11T07:26:01.603Z,99.90
2018-09-11T07:28:30.070Z,99.90
2018-09-11T07:30:58.614Z,99.90
2018-09-11T07:33:27.194Z,99.90
2018-09-11T07:35:55.892Z,99.90
2018-09-11T07:38:24.338Z,99.90
2018-09-11T07:40:52.798Z,99.90
2018-09-11T07:43:21.310Z,99.90
2018-09-11T07:45:49.750Z,99.90
2018-09-11T07:48:18.210Z,99.90
2018-09-11T07:50:46.710Z,99.90
2018-09-11T07:53:15.223Z,99.90
2018-09-11T07:55:43.707Z,99.90
2018-09-11T07:58:12.242Z,99.90
2018-09-11T08:00:40.794Z,99.90
2018-09-11T08:03:09.380Z,99.90
2018-09-11T08:05:37.802Z,99.90
2018-09-11T08:08:06.350Z,99.90
2018-09-11T08:10:36.036Z,99.90
2018-09-11T08:13:04.738Z,99.90
2018-09-11T08:15:33.288Z,99.90
2018-09-11T08:18:01.766Z,99.90
2018-09-11T08:20:30.242Z,99.90
2018-09-11T08:22:58.827Z,99.90
2018-09-11T08:25:27.491Z,99.90
2018-09-11T08:27:56.055Z,99.90
2018-09-11T08:30:24.695Z,99.90
2018-09-11T08:32:53.167Z,99.90
2018-09-11T08:35:21.689Z,99.90
2018-09-11T08:37:50.230Z,99.90
2018-09-11T08:40:19.353Z,99.90
2018-09-11T08:42:48.180Z,99.90
2018-09-11T08:45:16.826Z,99.90
2018-09-11T08:47:45.392Z,99.90
2018-09-11T08:50:13.878Z,99.90
2018-09-11T08:52:42.501Z,99.90
2018-09-11T08:55:10.942Z,99.90
2018-09-11T08:57:39.728Z,99.90
2018-09-11T09:00:08.878Z,99.90
2018-09-11T09:02:37.431Z,99.90
2018-09-11T09:05:06.014Z,99.90
2018-09-11T09:07:34.555Z,99.90
2018-09-11T09:10:03.145Z,99.90
2018-09-11T09:12:31.594Z,99.90
2018-09-11T09:15:00.247Z,99.90
2018-09-11T09:17:28.730Z,99.90
2018-09-11T09:19:57.210Z,99.90
2018-09-11T09:22:25.714Z,99.90
2018-09-11T09:24:54.359Z,99.90
2018-09-11T09:27:22.842Z,99.90
2018-09-11T09:29:52.325Z,99.90
2018-09-11T09:32:20.794Z,99.90
2018-09-11T09:34:49.267Z,99.90
2018-09-11T09:37:17.863Z,99.90
2018-09-11T09:39:46.386Z,99.90
2018-09-11T09:42:14.920Z,99.90
2018-09-11T09:44:43.446Z,99.90
2018-09-11T09:47:11.967Z,99.90
2018-09-11T09:49:40.466Z,99.90
2018-09-11T09:52:08.977Z,99.90
2018-09-11T09:54:37.454Z,99.90
2018-09-11T09:57:06.074Z,99.90
2018-09-11T09:59:34.627Z,99.90
2018-09-11T10:02:04.474Z,99.90
2018-09-11T10:04:33.617Z,99.90
2018-09-11T10:07:02.138Z,99.90
2018-09-11T10:09:30.614Z,99.90
2018-09-11T10:11:59.091Z,99.90
2018-09-11T10:14:28.280Z,99.90
2018-09-11T10:16:56.818Z,99.90
2018-09-11T10:19:25.323Z,99.90
2018-09-11T10:21:53.868Z,99.90
2018-09-11T10:24:22.333Z,99.90
2018-09-11T10:26:50.806Z,99.90
2018-09-11T10:29:19.353Z,99.90
2018-09-11T10:31:47.832Z,99.90
2018-09-11T10:34:16.348Z,99.90
2018-09-11T10:36:44.874Z,99.90
2018-09-11T10:39:13.395Z,99.90
2018-09-11T10:41:41.874Z,99.90
2018-09-11T10:44:10.518Z,99.90
2018-09-11T10:46:39.006Z,99.90
2018-09-11T10:49:07.608Z,99.90
2018-09-11T10:51:36.196Z,99.90
2018-09-11T10:54:04.717Z,99.90
2018-09-11T10:56:33.214Z,99.90
2018-09-11T10:59:01.774Z,99.90
2018-09-11T11:01:30.249Z,99.90
2018-09-11T11:03:58.839Z,99.90
2018-09-11T11:06:27.383Z,99.90
2018-09-11T11:08:55.863Z,99.90
2018-09-11T11:11:24.370Z,99.90
2018-09-11T11:13:52.886Z,99.90
2018-09-11T11:16:21.381Z,99.90
2018-09-11T11:18:49.872Z,99.90
2018-09-11T11:21:18.438Z,99.90
2018-09-11T11:23:47.130Z,99.90
2018-09-11T11:26:15.621Z,99.90
2018-09-11T11:28:44.146Z,99.90
2018-09-11T11:31:12.619Z,99.90
2018-09-11T11:33:41.094Z,99.90
2018-09-11T11:36:09.642Z,99.90
2018-09-11T11:38:38.099Z,99.90
2018-09-11T11:41:06.774Z,99.90
2018-09-11T11:43:35.566Z,99.90
2018-09-11T11:46:04.140Z,99.90
2018-09-11T11:48:32.615Z,99.90
2018-09-11T11:51:01.978Z,99.90
2018-09-11T11:53:30.463Z,99.90
2018-09-11T11:55:58.922Z,99.90
2018-09-11T11:58:27.418Z,99.90
2018-09-11T12:00:55.875Z,99.90
2018-09-11T12:03:24.331Z,99.90
2018-09-11T12:05:52.914Z,99.90
2018-09-11T12:08:21.680Z,99.90
2018-09-11T12:10:50.147Z,99.90
2018-09-11T12:13:18.630Z,99.90
2018-09-11T12:15:47.118Z,99.90
2018-09-11T12:18:15.590Z,99.90
2018-09-11T12:20:44.118Z,99.90
2018-09-11T12:23:12.571Z,99.90
2018-09-11T12:25:41.014Z,99.90
2018-09-11T12:28:09.536Z,99.90
2018-09-11T12:30:38.140Z,99.90
2018-09-11T12:33:06.794Z,99.90
2018-09-11T12:35:35.386Z,99.90
2018-09-11T12:38:03.863Z,99.90
2018-09-11T12:40:32.311Z,99.90
2018-09-11T12:43:00.830Z,99.90
2018-09-11T12:45:29.292Z,99.90
2018-09-11T12:47:58.344Z,99.90
2018-09-11T12:50:26.455Z,99.90
2018-09-11T12:52:54.982Z,99.90
2018-09-11T12:55:23.433Z,99.90
2018-09-11T12:57:51.966Z,99.90
2018-09-11T13:00:20.442Z,99.90
2018-09-11T13:02:48.890Z,99.90
2018-09-11T13:05:17.371Z,99.90
2018-09-11T13:07:45.810Z,99.90
2018-09-11T13:10:14.255Z,99.90
2018-09-11T13:12:42.914Z,99.90
2018-09-11T13:15:11.403Z,99.90
2018-09-11T13:17:39.827Z,99.90
2018-09-11T13:20:08.522Z,99.90
2018-09-11T13:22:36.963Z,99.90
2018-09-11T13:25:05.463Z,99.90
2018-09-11T13:27:33.985Z,99.90
2018-09-11T13:30:02.486Z,99.90
2018-09-11T13:32:30.990Z,99.90
2018-09-11T13:34:59.517Z,99.90
2018-09-11T13:37:28.194Z,99.90
2018-09-11T13:39:56.703Z,99.90
2018-09-11T13:42:25.275Z,99.90
2018-09-11T13:44:53.728Z,99.90
2018-09-11T13:47:22.356Z,99.90
2018-09-11T13:49:50.755Z,99.90
2018-09-11T13:52:19.223Z,99.90
2018-09-11T13:54:47.850Z,99.90
2018-09-11T13:57:16.343Z,99.90
2018-09-11T13:59:44.802Z,99.90
2018-09-11T14:02:13.406Z,99.90
2018-09-11T14:04:41.886Z,99.90
2018-09-11T14:07:10.419Z,99.90
2018-09-11T14:09:38.880Z,99.90
2018-09-11T14:12:07.405Z,99.90
2018-09-11T14:14:35.853Z,99.90
2018-09-11T14:17:04.315Z,99.90
2018-09-11T14:19:32.825Z,99.90
2018-09-11T14:22:01.279Z,99.90
2018-09-11T14:24:29.773Z,99.90
2018-09-11T14:26:58.251Z,99.90
2018-09-11T14:29:26.791Z,99.90
2018-09-11T14:31:55.302Z,99.90
2018-09-11T14:34:23.820Z,99.90
2018-09-11T14:36:52.268Z,99.90
2018-09-11T14:39:20.746Z,99.90
2018-09-11T14:41:49.226Z,99.90
2018-09-11T14:44:17.735Z,99.90
2018-09-11T14:46:46.198Z,99.90
2018-09-11T14:49:14.702Z,99.90
2018-09-11T14:51:43.179Z,99.90
2018-09-11T14:54:11.770Z,99.90
2018-09-11T14:56:40.304Z,99.90
2018-09-11T14:59:08.786Z,99.90
2018-09-11T15:01:37.266Z,99.90
2018-09-11T15:04:05.977Z,99.90
2018-09-11T15:06:34.451Z,99.90
2018-09-11T15:09:03.017Z,99.90
2018-09-11T15:11:31.570Z,99.90
2018-09-11T15:14:00.122Z,99.90
2018-09-11T15:16:28.641Z,99.90
2018-09-11T15:18:57.206Z,99.90
2018-09-11T15:21:25.678Z,99.90
2018-09-11T15:23:54.182Z,99.90
2018-09-11T15:26:22.743Z,99.90
2018-09-11T15:28:51.422Z,99.90
2018-09-11T15:31:19.923Z,99.90
2018-09-11T15:33:48.571Z,99.90
2018-09-11T15:36:17.137Z,99.90
2018-09-11T15:38:45.607Z,99.90
2018-09-11T15:41:14.134Z,99.90
2018-09-11T15:43:42.605Z,99.90
2018-09-11T15:46:11.080Z,99.90
2018-09-11T15:48:39.738Z,99.90
2018-09-11T15:51:08.275Z,99.90
2018-09-11T15:53:36.757Z,99.90
2018-09-11T15:56:05.296Z,99.90
2018-09-11T15:58:33.746Z,99.90
2018-09-11T16:01:02.233Z,99.90
2018-09-11T16:03:30.740Z,99.90
2018-09-11T16:05:59.351Z,99.90
2018-09-11T16:08:27.854Z,99.90
2018-09-11T16:10:56.400Z,99.90
2018-09-11T16:13:24.854Z,99.90
2018-09-11T16:15:53.308Z,99.90
2018-09-11T16:18:21.904Z,99.90
2018-09-11T16:20:50.360Z,99.90
2018-09-11T16:23:18.831Z,99.90
2018-09-11T16:25:47.318Z,99.90
2018-09-11T16:28:15.786Z,99.90
2018-09-11T16:30:44.282Z,99.90
2018-09-11T16:33:12.955Z,99.90
2018-09-11T16:35:41.413Z,99.90
2018-09-11T16:38:09.879Z,99.90
2018-09-11T16:40:38.402Z,99.90
2018-09-11T16:43:08.151Z,99.90
2018-09-11T16:45:36.594Z,99.90
2018-09-11T16:48:05.406Z,99.90
2018-09-11T16:50:34.542Z,99.90
2018-09-11T16:53:02.981Z,99.90
2018-09-11T16:55:31.570Z,99.90
2018-09-11T16:58:00.159Z,99.90
2018-09-11T17:00:29.479Z,99.90
2018-09-11T17:02:58.227Z,99.90
2018-09-11T17:05:26.754Z,99.90
2018-09-11T17:07:55.250Z,99.90
2018-09-11T17:10:23.851Z,99.90
2018-09-11T17:12:52.299Z,99.90
2018-09-11T17:15:20.739Z,99.90
2018-09-11T17:17:49.251Z,99.90
2018-09-11T17:20:17.738Z,99.90
2018-09-11T17:22:46.178Z,99.90
2018-09-11T17:25:14.758Z,99.90
2018-09-11T17:27:43.198Z,99.90
2018-09-11T17:30:12.198Z,99.90
2018-09-11T17:32:40.810Z,99.90
2018-09-11T17:35:09.319Z,99.90
2018-09-11T17:37:37.759Z,99.90
2018-09-11T17:40:06.602Z,99.90
2018-09-11T17:42:35.049Z,99.90
2018-09-11T17:45:03.542Z,99.90
2018-09-11T17:47:32.043Z,99.90
2018-09-11T17:50:00.514Z,99.90
2018-09-11T17:52:28.967Z,99.90
2018-09-11T17:54:57.602Z,99.90
2018-09-11T17:57:26.291Z,99.90
2018-09-11T17:59:54.754Z,99.90
2018-09-11T18:02:23.402Z,99.90
2018-09-11T18:04:51.955Z,99.90
2018-09-11T18:07:20.563Z,99.90
2018-09-11T18:09:49.119Z,99.90
2018-09-11T18:12:17.578Z,99.90
2018-09-11T18:14:46.036Z,99.90
2018-09-11T18:17:14.618Z,99.90
2018-09-11T18:19:43.204Z,99.90
2018-09-11T18:22:11.670Z,99.90
2018-09-11T18:24:40.276Z,99.90
2018-09-11T18:27:08.754Z,99.90
2018-09-11T18:29:37.232Z,99.90
2018-09-11T18:32:05.756Z,99.90
2018-09-11T18:34:34.214Z,99.90
2018-09-11T18:37:02.674Z,99.90
2018-09-11T18:39:31.246Z,99.90
2018-09-11T18:41:59.710Z,99.90
2018-09-11T18:44:28.212Z,99.90
2018-09-11T18:46:56.762Z,99.90
2018-09-11T18:49:25.243Z,99.90
2018-09-11T18:51:53.804Z,99.90
2018-09-11T18:54:22.298Z,99.90
2018-09-11T18:56:50.850Z,99.90
2018-09-11T18:59:19.330Z,99.90
2018-09-11T19:01:48.036Z,99.90
2018-09-11T19:04:16.518Z,99.90
2018-09-11T19:06:44.966Z,99.90
2018-09-11T19:09:13.478Z,99.90
2018-09-11T19:11:42.123Z,99.90
2018-09-11T19:14:11.166Z,99.90
2018-09-11T19:16:40.245Z,99.90
2018-09-11T19:19:09.341Z,99.90
2018-09-11T19:21:37.890Z,99.90
2018-09-11T19:24:06.382Z,99.90
2018-09-11T19:26:34.842Z,99.90
2018-09-11T19:29:03.331Z,99.90
2018-09-11T19:31:31.959Z,99.90
2018-09-11T19:34:00.494Z,99.90
2018-09-11T19:36:29.027Z,99.90
2018-09-11T19:38:57.543Z,99.90
2018-09-11T19:41:26.014Z,99.90
2018-09-11T19:43:54.452Z,99.90
2018-09-11T19:46:23.003Z,99.90
2018-09-11T19:48:53.415Z,99.90
2018-09-11T19:51:22.279Z,99.90
2018-09-11T19:53:50.843Z,99.90
2018-09-11T19:56:19.330Z,99.90
2018-09-11T19:58:48.040Z,99.90
2018-09-11T20:01:16.494Z,99.90
2018-09-11T20:03:44.953Z,99.90
2018-09-11T20:06:13.420Z,99.90
2018-09-11T20:08:41.970Z,99.90
2018-09-11T20:11:10.431Z,99.90
2018-09-11T20:13:38.930Z,99.90
2018-09-11T20:16:07.451Z,99.90
2018-09-11T20:18:35.936Z,99.90
2018-09-11T20:21:04.431Z,99.90
2018-09-11T20:23:32.948Z,99.90
2018-09-11T20:26:01.422Z,99.90
2018-09-11T20:28:29.914Z,99.90
2018-09-11T20:30:58.402Z,99.90
2018-09-11T20:33:27.711Z,99.90
2018-09-11T20:35:56.194Z,99.90
2018-09-11T20:38:24.787Z,99.90
2018-09-11T20:40:53.279Z,99.90
2018-09-11T20:43:21.751Z,99.90
2018-09-11T20:45:50.274Z,99.90
2018-09-11T20:48:18.783Z,99.90
2018-09-11T20:50:47.246Z,99.90
2018-09-11T20:53:15.835Z,99.90
2018-09-11T20:55:44.303Z,99.90
2018-09-11T20:58:12.776Z,99.90
2018-09-11T21:00:41.340Z,99.90
2018-09-11T21:03:09.826Z,99.90
2018-09-11T21:05:38.286Z,99.90
2018-09-11T21:08:06.890Z,99.90
2018-09-11T21:10:35.388Z,99.90
2018-09-11T21:13:06.130Z,99.90
2018-09-11T21:15:34.670Z,99.90
2018-09-11T21:18:03.253Z,99.90
2018-09-11T21:20:31.775Z,99.90
2018-09-11T21:23:00.518Z,99.90
2018-09-11T21:25:29.046Z,99.90
2018-09-11T21:27:57.530Z,99.90
2018-09-11T21:30:26.075Z,99.90
2018-09-11T21:32:54.538Z,99.90
2018-09-11T21:35:23.006Z,99.90
2018-09-11T21:37:51.510Z,99.90
2018-09-11T21:40:19.973Z,99.90
2018-09-11T21:42:48.447Z,99.90
2018-09-11T21:45:16.954Z,99.90
2018-09-11T21:47:45.446Z,99.90
2018-09-11T21:50:13.926Z,99.90
2018-09-11T21:52:42.490Z,99.90
2018-09-11T21:55:10.967Z,99.90
2018-09-11T21:57:39.410Z,99.90
2018-09-11T22:00:09.923Z,99.90
2018-09-11T22:02:38.352Z,99.90
2018-09-11T22:05:07.582Z,99.90
2018-09-11T22:07:36.584Z,99.90
2018-09-11T22:10:06.551Z,99.90
2018-09-11T22:12:35.030Z,99.90
2018-09-11T22:15:03.940Z,99.90
2018-09-11T22:17:32.411Z,99.90
2018-09-11T22:20:00.923Z,99.90
2018-09-11T22:22:29.430Z,99.90
2018-09-11T22:24:58.128Z,99.90
2018-09-11T22:27:26.534Z,99.90
2018-09-11T22:29:55.286Z,99.90
2018-09-11T22:32:23.811Z,99.90
2018-09-11T22:34:52.295Z,99.90
2018-09-11T22:37:20.855Z,99.90
2018-09-11T22:39:49.316Z,99.90
2018-09-11T22:42:17.822Z,99.90
2018-09-11T22:44:46.368Z,99.90
2018-09-11T22:47:14.830Z,99.90
2018-09-11T22:49:43.299Z,99.90
2018-09-11T22:52:11.870Z,99.90
2018-09-11T22:54:40.385Z,99.90
2018-09-11T22:57:08.917Z,99.90
2018-09-11T22:59:37.510Z,99.90
2018-09-11T23:02:05.999Z,99.90
2018-09-11T23:04:34.450Z,99.90
2018-09-11T23:07:03.004Z,99.90
2018-09-11T23:09:31.470Z,99.90
2018-09-11T23:11:59.922Z,99.90
2018-09-11T23:14:28.686Z,99.90
2018-09-11T23:16:57.140Z,99.90
2018-09-11T23:19:25.874Z,99.90
2018-09-11T23:21:54.387Z,99.90
2018-09-11T23:24:22.850Z,99.90
2018-09-11T23:26:51.400Z,99.90
2018-09-11T23:29:20.246Z,99.90
2018-09-11T23:31:48.765Z,99.90
2018-09-11T23:34:17.232Z,99.90
2018-09-11T23:36:45.750Z,99.90
2018-09-11T23:39:14.231Z,99.90
2018-09-11T23:41:43.463Z,99.90
2018-09-11T23:44:11.997Z,99.90
2018-09-11T23:46:40.459Z,99.90
2018-09-11T23:49:09.039Z,99.90
2018-09-11T23:51:37.623Z,99.90
2018-09-11T23:54:06.110Z,99.90
2018-09-11T23:56:34.592Z,99.90
2018-09-11T23:59:03.163Z,99.90
